Time;durP1;ratioP1;P1;durP2;ratioP2;P2;SDS_P1;SDS_P2;PMS_P1;PMS_P2;Temp;Humidity;BMP_temperature;BMP_pressure;BME280_temperature;BME280_humidity;BME280_pressure;Samples;Min_cycle;Max_cycle;Signal;HPM_P1;HPM_P2
2021/06/05 00:00:37;;;;;;;18.10;6.95;;;;;;;14.96;100.00;101066.70;1683139;85;21558;-86
2021/06/05 00:03:04;;;;;;;22.58;7.33;;;;;;;14.92;100.00;101065.09;1625145;88;21511;-86
2021/06/05 00:05:44;;;;;;;22.40;7.12;;;;;;;14.94;100.00;101062.09;1625067;88;21149;-85
2021/06/05 00:08:13;;;;;;;19.12;6.03;;;;;;;14.96;100.00;101056.66;1624041;88;21023;-84
2021/06/05 00:10:44;;;;;;;13.98;5.90;;;;;;;14.96;100.00;101052.59;1625317;88;21198;-85
2021/06/05 00:13:18;;;;;;;15.90;5.80;;;;;;;14.97;100.00;101048.80;1625351;88;20979;-85
2021/06/05 00:15:46;;;;;;;16.20;5.72;;;;;;;14.94;100.00;101046.64;1573097;91;21599;-86
2021/06/05 00:18:14;;;;;;;13.15;5.53;;;;;;;14.90;100.00;101043.39;1573176;90;21624;-86
2021/06/05 00:20:41;;;;;;;17.87;5.12;;;;;;;14.91;100.00;101042.30;1573174;91;20991;-86
2021/06/05 00:23:12;;;;;;;17.65;5.03;;;;;;;14.98;100.00;101044.18;1573171;91;21086;-86
2021/06/05 00:25:39;;;;;;;13.15;4.50;;;;;;;14.98;100.00;101044.18;1573073;91;21047;-86
2021/06/05 00:28:05;;;;;;;13.55;4.40;;;;;;;14.98;100.00;101049.06;1573025;91;21097;-86
2021/06/05 00:30:32;;;;;;;11.45;4.33;;;;;;;14.98;100.00;101044.98;1572948;91;22087;-86
2021/06/05 00:32:59;;;;;;;8.15;3.70;;;;;;;14.99;100.00;101049.86;1572993;91;21065;-86
2021/06/05 00:35:30;;;;;;;11.53;3.50;;;;;;;14.98;100.00;101046.89;1572170;91;21091;-86
2021/06/05 00:37:57;;;;;;;12.82;3.92;;;;;;;14.98;100.00;101046.34;1570201;91;21046;-86
2021/06/05 00:40:28;;;;;;;12.98;3.90;;;;;;;14.94;100.00;101046.64;1570213;91;21090;-86
2021/06/05 00:42:56;;;;;;;12.70;3.90;;;;;;;14.94;100.00;101047.16;1570058;91;21239;-86
2021/06/05 00:45:26;;;;;;;15.48;3.33;;;;;;;14.91;100.00;101034.15;1570172;91;21066;-86
2021/06/05 00:47:52;;;;;;;14.47;3.62;;;;;;;14.93;100.00;101039.57;1570276;91;21081;-86
2021/06/05 00:50:19;;;;;;;20.60;3.50;;;;;;;14.90;100.00;101036.61;1570207;91;21038;-86
2021/06/05 00:52:46;;;;;;;7.45;2.92;;;;;;;14.94;100.00;101037.14;1570396;91;21114;-86
2021/06/05 00:55:16;;;;;;;15.48;3.42;;;;;;;14.92;100.00;101033.89;1570168;91;21113;-86
2021/06/05 00:57:42;;;;;;;7.85;3.25;;;;;;;14.95;100.00;101037.95;1570093;91;21062;-87
2021/06/05 01:00:26;;;;;;;12.82;3.40;;;;;;;14.91;100.00;101028.20;1600069;88;21109;-87
2021/06/05 01:02:52;;;;;;;13.95;3.85;;;;;;;14.87;100.00;101028.47;1569093;91;21147;-86
2021/06/05 01:05:19;;;;;;;8.30;3.08;;;;;;;14.88;100.00;101023.85;1569055;91;21047;-86
2021/06/05 01:07:47;;;;;;;11.68;2.83;;;;;;;14.89;100.00;101030.37;1559114;91;21119;-86
2021/06/05 01:10:27;;;;;;;8.40;2.52;;;;;;;14.84;100.00;101025.51;1565689;91;21097;-85
2021/06/05 01:13:04;;;;;;;9.30;2.85;;;;;;;14.81;100.00;101026.87;1473219;97;21117;-86
2021/06/05 01:15:54;;;;;;;7.22;3.27;;;;;;;14.80;100.00;101021.19;1490884;96;21062;-86
2021/06/05 01:18:31;;;;;;;11.85;2.90;;;;;;;14.80;100.00;101023.91;1492974;95;21564;-87
2021/06/05 01:21:20;;;;;;;8.05;3.15;;;;;;;14.76;100.00;101025.52;1479465;95;21106;-85
2021/06/05 01:24:29;;;;;;;9.25;3.08;;;;;;;14.78;100.00;101021.20;1497757;95;21078;-84
2021/06/05 01:27:02;;;;;;;6.12;2.85;;;;;;;14.77;100.00;101027.17;1497709;95;21370;-85
2021/06/05 01:29:40;;;;;;;10.70;3.33;;;;;;;14.76;100.00;101018.22;1493680;95;21070;-85
2021/06/05 01:32:09;;;;;;;12.85;2.98;;;;;;;14.73;100.00;101016.59;1497804;95;21233;-85
2021/06/05 01:34:43;;;;;;;5.20;2.50;;;;;;;14.67;100.00;101020.41;1497689;95;21206;-86
2021/06/05 01:37:12;;;;;;;7.03;2.60;;;;;;;14.65;100.00;101019.89;1494914;95;21645;-85
2021/06/05 01:39:43;;;;;;;11.95;3.00;;;;;;;14.62;100.00;101017.19;1514683;91;21123;-85
2021/06/05 01:42:23;;;;;;;10.63;3.08;;;;;;;14.57;100.00;101015.84;1550194;91;21129;-85
2021/06/05 01:44:53;;;;;;;9.75;2.67;;;;;;;14.54;100.00;101013.13;1544448;92;21019;-85
2021/06/05 01:47:20;;;;;;;6.50;3.00;;;;;;;14.52;100.00;101011.23;1544661;92;21251;-86
2021/06/05 01:49:47;;;;;;;5.20;2.08;;;;;;;14.48;100.00;101012.84;1544857;92;21094;-85
2021/06/05 01:52:21;;;;;;;10.58;3.37;;;;;;;14.46;100.00;101012.30;1544841;92;21605;-85
2021/06/05 01:55:11;;;;;;;12.70;2.77;;;;;;;14.43;100.00;101012.85;1544633;92;21539;-85
2021/06/05 01:57:42;;;;;;;13.10;3.17;;;;;;;14.42;100.00;101013.95;1485831;96;21369;-86
2021/06/05 02:00:23;;;;;;;8.15;2.77;;;;;;;14.40;100.00;101018.83;1468024;96;21174;-86
2021/06/05 02:02:49;;;;;;;13.15;2.52;;;;;;;14.39;100.00;101016.41;1502783;92;21111;-85
2021/06/05 02:05:16;;;;;;;12.28;2.58;;;;;;;14.35;100.00;101020.73;1553702;91;21063;-85
2021/06/05 02:07:42;;;;;;;11.97;2.80;;;;;;;14.24;100.00;101023.48;1554807;91;21192;-86
2021/06/05 02:10:12;;;;;;;9.88;2.40;;;;;;;14.19;100.00;101018.60;1545993;92;21360;-86
2021/06/05 02:12:40;;;;;;;14.40;2.55;;;;;;;14.20;100.00;101015.61;1545768;92;21996;-85
2021/06/05 02:15:14;;;;;;;11.95;2.95;;;;;;;14.16;100.00;101016.44;1545576;92;21150;-85
2021/06/05 02:17:43;;;;;;;17.12;2.65;;;;;;;14.10;100.00;101015.63;1542555;92;21046;-85
2021/06/05 02:20:14;;;;;;;12.60;2.65;;;;;;;14.07;100.00;101015.63;1545866;92;21103;-85
2021/06/05 02:22:44;;;;;;;11.08;2.77;;;;;;;14.05;100.00;101010.21;1545916;92;21031;-85
2021/06/05 02:25:14;;;;;;;5.55;2.55;;;;;;;14.05;100.00;101012.92;1526430;92;21121;-85
2021/06/05 02:27:44;;;;;;;11.48;2.52;;;;;;;14.03;100.00;101011.86;1545850;92;21059;-85
2021/06/05 02:30:15;;;;;;;13.65;2.25;;;;;;;14.00;100.00;101016.46;1526337;92;21097;-85
2021/06/05 02:32:41;;;;;;;10.35;2.65;;;;;;;13.99;100.00;101015.37;1545821;92;21059;-85
2021/06/05 02:35:12;;;;;;;6.83;2.12;;;;;;;13.95;100.00;101017.01;1545986;92;21102;-86
2021/06/05 02:37:39;;;;;;;7.53;2.40;;;;;;;13.91;100.00;101013.20;1545795;92;21700;-85
2021/06/05 02:40:10;;;;;;;8.65;2.62;;;;;;;13.91;100.00;101019.42;1546041;92;21062;-85
2021/06/05 02:42:39;;;;;;;12.23;2.37;;;;;;;13.93;100.00;101017.27;1584400;89;21562;-86
2021/06/05 02:45:13;;;;;;;7.78;2.70;;;;;;;13.96;100.00;101020.78;1590045;89;21076;-86
2021/06/05 02:47:43;;;;;;;7.40;2.33;;;;;;;14.02;100.00;101018.89;1523746;93;21118;-86
2021/06/05 02:50:10;;;;;;;5.47;2.27;;;;;;;14.08;100.00;101015.89;1518066;94;21507;-85
2021/06/05 02:52:36;;;;;;;7.70;2.52;;;;;;;14.12;100.00;101022.12;1524018;94;20999;-85
2021/06/05 02:55:15;;;;;;;6.53;2.40;;;;;;;14.11;100.00;101020.51;1554870;91;21753;-86
2021/06/05 02:57:42;;;;;;;8.33;2.20;;;;;;;14.11;100.00;101017.80;1543371;93;21087;-86
2021/06/05 03:00:18;;;;;;;5.83;2.27;;;;;;;14.18;100.00;101021.86;1515289;94;21012;-85
2021/06/05 03:02:44;;;;;;;9.63;2.90;;;;;;;14.25;100.00;101021.03;1431999;100;21443;-85
2021/06/05 03:05:11;;;;;;;7.05;2.45;;;;;;;14.28;100.00;101019.67;1472132;97;21047;-86
2021/06/05 03:07:37;;;;;;;5.47;2.27;;;;;;;14.32;100.00;101019.38;1472138;97;21039;-86
2021/06/05 03:10:06;;;;;;;15.13;2.47;;;;;;;14.38;100.00;101018.83;1516978;94;20968;-85
2021/06/05 03:12:32;;;;;;;12.60;2.67;;;;;;;14.42;100.00;101014.50;1517564;94;21160;-85
2021/06/05 03:15:00;;;;;;;12.07;3.10;;;;;;;14.46;100.00;101015.02;1517093;94;21955;-85
2021/06/05 03:17:28;;;;;;;5.03;2.72;;;;;;;14.58;100.00;101019.36;1517727;94;21016;-86
2021/06/05 03:19:56;;;;;;;8.73;2.67;;;;;;;14.66;100.00;101016.08;1517143;94;21007;-86
2021/06/05 03:22:21;;;;;;;13.08;2.67;;;;;;;14.76;100.00;101017.39;1510939;94;21141;-86
2021/06/05 03:24:52;;;;;;;14.47;3.12;;;;;;;14.83;100.00;101011.14;1498509;94;21113;-86
2021/06/05 03:27:19;;;;;;;9.78;3.52;;;;;;;14.91;100.00;101020.06;1517162;94;21237;-86
2021/06/05 03:29:46;;;;;;;12.20;3.30;;;;;;;15.06;100.00;101012.91;1511737;95;21103;-85
2021/06/05 03:32:12;;;;;;;9.73;3.42;;;;;;;15.30;100.00;101013.07;1517408;94;21135;-86
2021/06/05 03:34:38;;;;;;;6.30;3.00;;;;;;;15.63;100.00;101010.13;1543026;89;21080;-86
2021/06/05 03:37:07;;;;;;;7.97;2.87;;;;;;;15.99;100.00;101015.29;1599218;89;21037;-86
2021/06/05 03:39:34;;;;;;;13.35;3.05;;;;;;;16.43;100.00;101008.32;1599193;89;21106;-86
2021/06/05 03:42:00;;;;;;;8.30;3.20;;;;;;;17.03;100.00;101015.53;1598803;89;21084;-86
2021/06/05 03:44:26;;;;;;;8.38;3.75;;;;;;;17.41;100.00;101012.83;1624657;86;21126;-86
2021/06/05 03:46:52;;;;;;;8.43;3.30;;;;;;;17.83;100.00;101015.75;1626237;86;20896;-86
2021/06/05 03:49:18;;;;;;;7.00;3.50;;;;;;;17.98;100.00;101011.95;1597359;88;20994;-86
2021/06/05 03:51:44;;;;;;;12.03;3.40;;;;;;;17.99;100.00;101009.47;1569599;90;21250;-86
2021/06/05 03:54:10;;;;;;;13.05;4.65;;;;;;;18.03;100.00;101012.67;1569422;90;20908;-87
2021/06/05 03:56:36;;;;;;;10.63;3.98;;;;;;;18.16;100.00;101009.71;1569284;90;21052;-86
2021/06/05 03:59:04;;;;;;;8.33;3.58;;;;;;;18.23;100.00;101011.48;1620705;85;21254;-86
2021/06/05 04:01:31;;;;;;;11.08;4.50;;;;;;;18.21;100.00;101008.83;1675299;84;21215;-86
2021/06/05 04:03:58;;;;;;;8.58;3.80;;;;;;;18.22;100.00;101013.16;1675273;85;21176;-86
2021/06/05 04:06:26;;;;;;;9.80;3.83;;;;;;;18.16;100.00;101009.15;1675225;85;21033;-86
2021/06/05 04:08:54;;;;;;;10.30;4.33;;;;;;;18.24;100.00;101008.22;1673113;84;21005;-86
2021/06/05 04:11:21;;;;;;;16.32;4.67;;;;;;;18.32;100.00;101000.15;1669934;86;21099;-86
2021/06/05 04:13:47;;;;;;;9.40;4.30;;;;;;;18.29;100.00;101002.08;1683716;84;21004;-87
2021/06/05 04:16:16;;;;;;;12.70;4.65;;;;;;;18.39;100.00;101003.83;1700234;84;21124;-86
2021/06/05 04:18:44;;;;;;;12.25;5.22;;;;;;;18.45;100.00;101005.35;1700228;84;21036;-86
2021/06/05 04:21:14;;;;;;;15.70;4.20;;;;;;;18.57;100.00;101000.75;1700294;84;21027;-86
2021/06/05 04:23:41;;;;;;;14.55;4.67;;;;;;;18.64;100.00;101001.70;1700074;84;21008;-87
2021/06/05 04:26:08;;;;;;;15.85;4.67;;;;;;;18.74;100.00;101001.55;1700219;84;21012;-87
2021/06/05 04:28:36;;;;;;;8.50;4.55;;;;;;;18.83;100.00;101005.97;1700132;84;21044;-86
2021/06/05 04:31:04;;;;;;;10.70;4.55;;;;;;;18.97;100.00;101005.12;1700105;84;21099;-86
2021/06/05 04:33:30;;;;;;;16.07;4.50;;;;;;;19.05;100.00;100999.75;1700192;84;20981;-87
2021/06/05 04:36:01;;;;;;;14.15;5.33;;;;;;;19.14;100.00;100999.84;1700327;84;20972;-87
2021/06/05 04:38:27;;;;;;;11.78;4.47;;;;;;;19.20;100.00;100995.06;1699981;84;21542;-87
2021/06/05 04:40:54;;;;;;;7.70;3.75;;;;;;;19.26;100.00;100998.73;1700216;84;21130;-87
2021/06/05 04:43:21;;;;;;;13.03;5.62;;;;;;;19.37;100.00;100995.78;1700299;84;21071;-88
2021/06/05 04:45:47;;;;;;;13.03;3.92;;;;;;;19.56;100.00;100998.33;1700202;84;21050;-87
2021/06/05 04:48:14;;;;;;;11.57;4.12;;;;;;;19.63;100.00;100993.25;1700184;84;21044;-87
2021/06/05 04:50:42;;;;;;;9.68;3.92;;;;;;;19.88;100.00;100991.82;1700101;84;21048;-88
2021/06/05 04:53:09;;;;;;;10.45;3.45;;;;;;;20.15;100.00;100979.92;1700162;84;21166;-87
2021/06/05 04:55:36;;;;;;;11.55;4.00;;;;;;;20.38;100.00;100978.73;1700150;84;21066;-87
2021/06/05 04:58:05;;;;;;;9.43;3.08;;;;;;;20.83;100.00;100979.13;1700128;84;21039;-87
2021/06/05 05:00:38;;;;;;;9.98;3.50;;;;;;;21.18;100.00;100977.77;1700152;84;21499;-87
2021/06/05 05:03:06;;;;;;;9.68;3.45;;;;;;;21.50;100.00;100974.59;1700110;84;21172;-87
2021/06/05 05:05:33;;;;;;;10.85;3.65;;;;;;;21.72;100.00;100973.58;1700034;84;21616;-87
2021/06/05 05:07:59;;;;;;;15.35;3.20;;;;;;;21.84;100.00;100966.05;1700115;84;20997;-87
2021/06/05 05:10:30;;;;;;;14.50;3.33;;;;;;;22.01;100.00;100974.80;1712099;83;20993;-88
2021/06/05 05:12:57;;;;;;;12.15;3.30;;;;;;;22.30;100.00;100970.54;1712670;83;20981;-87
2021/06/05 05:15:24;;;;;;;7.25;3.40;;;;;;;22.77;100.00;100966.33;1712734;83;21016;-88
2021/06/05 05:17:50;;;;;;;12.75;3.58;;;;;;;22.80;100.00;100970.58;1703912;83;21146;-87
2021/06/05 05:20:22;;;;;;;12.28;3.30;;;;;;;22.95;100.00;100968.41;1712644;83;21047;-88
2021/06/05 05:22:48;;;;;;;9.33;3.40;;;;;;;23.25;100.00;100966.39;1712917;83;21064;-88
2021/06/05 05:25:14;;;;;;;10.18;3.45;;;;;;;23.68;100.00;100959.66;1712801;83;21559;-88
2021/06/05 05:27:41;;;;;;;13.85;3.37;;;;;;;23.88;100.00;100963.53;1712831;83;20937;-88
2021/06/05 05:30:12;;;;;;;9.15;2.90;;;;;;;23.99;96.64;100957.83;1712721;83;21029;-89
2021/06/05 05:32:38;;;;;;;9.45;2.85;;;;;;;24.54;100.00;100962.02;1712636;82;21047;-88
2021/06/05 05:35:05;;;;;;;8.23;2.85;;;;;;;25.03;100.00;100952.84;1712649;83;20904;-88
2021/06/05 05:37:31;;;;;;;11.68;3.37;;;;;;;25.23;100.00;100951.89;1711408;83;21591;-87
2021/06/05 05:39:57;;;;;;;11.28;2.80;;;;;;;25.80;100.00;100950.70;1712775;83;20960;-87
2021/06/05 05:42:23;;;;;;;9.15;2.90;;;;;;;26.25;93.31;100953.63;1712770;83;21491;-88
2021/06/05 05:44:49;;;;;;;7.17;3.10;;;;;;;27.04;93.34;100948.53;1712499;82;21032;-88
2021/06/05 05:47:15;;;;;;;6.50;3.15;;;;;;;27.73;96.43;100953.44;1729119;81;20986;-88
2021/06/05 05:49:40;;;;;;;10.15;2.98;;;;;;;28.91;84.64;100945.04;1746709;81;20928;-89
2021/06/05 05:52:07;;;;;;;9.25;2.90;;;;;;;29.18;73.55;100939.48;1720400;81;20904;-89
2021/06/05 05:54:33;;;;;;;10.25;2.92;;;;;;;30.00;73.61;100936.73;1712323;83;21126;-90
2021/06/05 05:56:59;;;;;;;8.80;3.08;;;;;;;30.30;67.34;100940.80;1712609;82;21059;-89
2021/06/05 05:59:25;;;;;;;13.22;2.90;;;;;;;30.22;51.59;100936.36;1712519;83;21601;-90
2021/06/05 06:01:51;;;;;;;9.75;2.98;;;;;;;31.15;64.30;100930.73;1712663;83;20877;-89
2021/06/05 06:04:17;;;;;;;5.78;3.27;;;;;;;30.89;50.31;100933.22;1712624;83;20972;-89
2021/06/05 06:06:43;;;;;;;5.05;2.60;;;;;;;31.51;60.07;100928.67;1712694;83;21882;-88
2021/06/05 06:09:09;;;;;;;6.55;2.55;;;;;;;32.46;52.97;100920.73;1712159;83;20988;-89
2021/06/05 06:11:35;;;;;;;5.92;2.80;;;;;;;32.04;50.85;100923.16;1712672;83;21691;-89
2021/06/05 06:14:01;;;;;;;7.40;3.17;;;;;;;31.63;51.74;100926.89;1712539;82;21007;-89
2021/06/05 06:16:29;;;;;;;9.28;3.00;;;;;;;31.75;52.97;100920.14;1712608;83;21031;-89
2021/06/05 06:18:55;;;;;;;8.20;3.58;;;;;;;32.46;50.71;100920.13;1712743;83;21174;-90
2021/06/05 06:21:23;;;;;;;12.28;3.20;;;;;;;33.24;52.95;100916.88;1712750;82;20897;-90
2021/06/05 06:23:55;;;;;;;5.92;3.12;;;;;;;34.03;50.94;100914.91;1712585;83;21087;-89
2021/06/05 06:26:26;;;;;;;10.98;2.92;;;;;;;33.75;49.11;100918.15;1712770;83;21005;-90
2021/06/05 06:28:55;;;;;;;9.83;2.60;;;;;;;33.82;49.01;100911.70;1654349;85;21143;-89
2021/06/05 06:31:24;;;;;;;10.03;2.83;;;;;;;34.19;47.73;100908.20;1654329;86;21719;-89
2021/06/05 06:33:51;;;;;;;7.30;2.42;;;;;;;34.81;45.29;100905.73;1654235;86;21079;-90
2021/06/05 06:36:19;;;;;;;9.48;2.85;;;;;;;35.29;41.65;100908.73;1654274;86;21050;-89
2021/06/05 06:38:48;;;;;;;6.55;2.55;;;;;;;35.45;37.76;100907.50;1654409;86;21040;-90
2021/06/05 06:41:19;;;;;;;7.08;2.35;;;;;;;36.14;39.36;100898.17;1654219;86;21091;-90
2021/06/05 06:43:46;;;;;;;11.03;3.20;;;;;;;35.30;41.31;100905.52;1650694;86;21591;-89
2021/06/05 06:46:17;;;;;;;10.68;2.60;;;;;;;35.38;38.78;100900.58;1654236;86;21107;-91
2021/06/05 06:48:45;;;;;;;4.93;2.70;;;;;;;34.95;37.21;100896.97;1654750;86;21110;-89
2021/06/05 06:51:11;;;;;;;4.67;2.17;;;;;;;35.12;39.91;100897.95;1654476;86;21075;-92
2021/06/05 06:53:37;;;;;;;8.48;2.65;;;;;;;36.02;40.91;100902.36;1624850;85;21076;-92
2021/06/05 06:56:05;;;;;;;8.23;2.40;;;;;;;35.77;37.52;100902.81;1654527;86;21168;-91
2021/06/05 06:58:32;;;;;;;3.95;2.00;;;;;;;34.98;34.85;100898.92;1654393;86;21103;-90
2021/06/05 07:00:59;;;;;;;9.25;2.65;;;;;;;34.71;33.86;100899.67;1654759;86;21063;-90
2021/06/05 07:03:25;;;;;;;9.25;2.67;;;;;;;34.35;31.29;100901.42;1654618;86;21621;-89
2021/06/05 07:05:51;;;;;;;6.53;2.22;;;;;;;33.56;36.17;100898.53;1654569;83;20920;-89
2021/06/05 07:08:25;;;;;;;6.53;2.50;;;;;;;34.17;38.10;100896.62;1654743;86;21150;-90
2021/06/05 07:10:55;;;;;;;7.72;2.30;;;;;;;33.76;33.18;100888.97;1655218;85;21575;-90
2021/06/05 07:13:23;;;;;;;4.75;2.40;;;;;;;34.18;35.56;100892.63;1653033;86;21535;-91
2021/06/05 07:15:57;;;;;;;5.97;1.85;;;;;;;34.51;36.41;100897.28;1656095;86;21464;-91
2021/06/05 07:18:27;;;;;;;5.50;2.10;;;;;;;35.18;37.04;100895.68;1656083;86;21091;-90
2021/06/05 07:20:53;;;;;;;5.62;1.77;;;;;;;34.95;35.55;100893.56;1655813;86;21107;-92
2021/06/05 07:23:22;;;;;;;4.60;1.77;;;;;;;33.77;35.45;100893.38;1656060;86;21000;-91
2021/06/05 07:25:49;;;;;;;4.17;1.90;;;;;;;33.22;35.27;100901.12;1688185;83;21005;-90
2021/06/05 07:28:23;;;;;;;6.50;1.85;;;;;;;33.24;38.02;100895.92;1714509;83;21016;-91
2021/06/05 07:30:51;;;;;;;9.98;1.95;;;;;;;32.00;35.23;100900.03;1714448;82;20992;-89
2021/06/05 07:33:18;;;;;;;8.15;1.80;;;;;;;32.84;35.14;100892.50;1714452;82;21038;-93
2021/06/05 07:35:45;;;;;;;9.03;2.02;;;;;;;33.13;36.87;100888.99;1722083;81;21016;-90
2021/06/05 07:38:14;;;;;;;4.62;1.62;;;;;;;32.98;38.11;100893.05;1727936;82;20968;-90
2021/06/05 07:40:41;;;;;;;8.75;1.87;;;;;;;32.64;36.14;100885.19;1727778;82;20954;-91
2021/06/05 07:43:08;;;;;;;7.90;1.80;;;;;;;32.99;37.94;100881.48;1727857;83;21004;-90
2021/06/05 07:45:34;;;;;;;7.08;2.00;;;;;;;32.55;36.51;100889.80;1707430;83;21130;-89
2021/06/05 07:48:01;;;;;;;6.62;1.77;;;;;;;33.58;40.16;100886.32;1717561;81;21016;-90
2021/06/05 07:50:28;;;;;;;5.87;1.52;;;;;;;34.06;36.13;100887.53;1762005;80;21004;-90
2021/06/05 07:52:54;;;;;;;6.10;1.60;;;;;;;33.25;35.36;100882.93;1715355;83;20992;-90
2021/06/05 07:55:20;;;;;;;4.30;1.67;;;;;;;32.58;33.75;100881.23;1712640;83;21622;-93
2021/06/05 07:57:46;;;;;;;4.90;1.60;;;;;;;32.85;37.18;100883.52;1712491;83;21032;-91
2021/06/05 08:00:18;;;;;;;3.30;1.32;;;;;;;32.35;37.55;100881.05;1712443;83;21715;-91
2021/06/05 08:02:44;;;;;;;;;;;;;;;32.65;38.46;100877.61;1710555;83;21086;-89
2021/06/05 08:05:21;;;;;;;3.05;1.47;;;;;;;32.32;36.81;100874.89;1687745;83;20179;-91
2021/06/05 08:07:48;;;;;;;5.03;1.40;;;;;;;32.01;38.56;100875.16;1688708;84;21054;-91
2021/06/05 08:10:21;;;;;;;5.45;1.57;;;;;;;31.77;38.35;100878.14;1681450;84;21919;-92
2021/06/05 08:12:48;;;;;;;4.62;2.08;;;;;;;30.95;36.82;100877.97;1637043;85;21642;-93
2021/06/05 08:15:19;;;;;;;5.33;1.72;;;;;;;31.02;35.95;100880.77;1675434;85;21172;-91
2021/06/05 08:17:44;;;;;;;4.78;1.47;;;;;;;31.72;40.94;100875.73;1710622;82;20964;-93
2021/06/05 08:20:15;;;;;;;7.05;1.85;;;;;;;31.34;39.93;100872.48;1735879;82;21073;-92
2021/06/05 08:22:42;;;;;;;7.90;1.77;;;;;;;31.52;40.63;100873.94;1730692;81;21378;-92
2021/06/05 08:25:10;;;;;;;6.40;1.67;;;;;;;31.86;39.33;100874.95;1727470;83;20984;-93
2021/06/05 08:27:38;;;;;;;8.08;1.60;;;;;;;31.80;38.27;100873.76;1727362;83;21056;-94
2021/06/05 08:30:10;;;;;;;9.88;1.90;;;;;;;32.29;40.54;100867.93;1726957;82;20997;-91
2021/06/05 08:32:36;;;;;;;9.88;2.33;;;;;;;32.62;38.55;100854.70;1727581;82;20973;-92
2021/06/05 08:35:02;;;;;;;13.60;1.92;;;;;;;31.96;37.65;100860.22;1727616;82;21457;-94
2021/06/05 08:37:28;;;;;;;7.12;1.72;;;;;;;31.33;39.36;100859.77;1721460;82;21021;-93
2021/06/05 08:39:54;;;;;;;5.17;1.47;;;;;;;32.35;40.37;100851.77;1741362;82;20893;-95
2021/06/05 08:48:11;;;;;;;6.55;1.82;;;;;;;32.66;35.43;100844.33;1733016;82;20988;-91
2021/06/05 08:50:38;;;;;;;3.33;1.40;;;;;;;33.45;37.66;100844.69;1711727;83;21141;-94
2021/06/05 08:53:09;;;;;;;6.00;1.50;;;;;;;33.10;34.88;100844.33;1711943;83;21005;-92
2021/06/05 08:55:43;;;;;;;9.57;2.17;;;;;;;31.55;34.83;100856.42;1711738;83;20993;-91
2021/06/05 08:58:28;;;;;;;10.63;1.80;;;;;;;32.29;35.37;100844.22;1649181;87;21078;-93
2021/06/05 09:00:51;;;;;;;;;;;;;;;31.27;36.87;100846.60;1628584;87;20969;-92
2021/06/05 09:03:32;;;;;;;4.30;1.52;;;;;;;31.13;35.55;100852.36;1628994;88;20184;-92
2021/06/05 09:06:04;;;;;;;7.00;1.60;;;;;;;31.40;37.00;100850.05;1640204;87;21323;-92
2021/06/05 09:08:31;;;;;;;6.10;1.80;;;;;;;30.93;39.38;100845.55;1550791;92;21133;-94
2021/06/05 09:11:02;;;;;;;4.10;1.42;;;;;;;30.02;37.79;100849.60;1556496;91;21069;-91
2021/06/05 09:13:31;;;;;;;3.33;1.47;;;;;;;30.04;40.34;100842.48;1563043;91;22604;-91
2021/06/05 09:16:24;;;;;;;10.85;1.80;;;;;;;30.07;38.32;100838.13;1529758;91;21160;-89
2021/06/05 09:19:11;;;;;;;8.55;1.80;;;;;;;30.48;40.22;100835.22;1489666;96;21097;-90
2021/06/05 09:21:48;;;;;;;5.58;1.35;;;;;;;30.10;38.66;100837.36;1487575;96;21131;-91
2021/06/05 09:24:19;;;;;;;3.33;1.27;;;;;;;29.26;40.73;100837.63;1489488;96;21173;-91
2021/06/05 09:27:11;;;;;;;3.70;1.30;;;;;;;29.00;40.08;100830.98;1489177;95;21085;-89
2021/06/05 09:30:06;;;;;;;4.85;1.42;;;;;;;28.72;43.41;100835.62;1489394;96;21158;-89
2021/06/05 09:32:38;;;;;;;8.28;1.40;;;;;;;28.00;44.62;100831.86;1489854;96;21141;-89
2021/06/05 09:35:21;;;;;;;3.42;1.80;;;;;;;28.50;44.52;100829.82;1489868;96;21109;-88
2021/06/05 09:37:53;;;;;;;6.47;1.30;;;;;;;28.17;45.12;100835.25;1485683;95;21206;-89
2021/06/05 09:40:24;;;;;;;6.83;1.60;;;;;;;28.12;45.77;100823.09;1392785;103;21231;-88
2021/06/05 09:43:16;;;;;;;5.03;1.70;;;;;;;28.14;47.71;100824.33;1399491;100;21848;-90
2021/06/05 09:45:47;;;;;;;4.55;1.60;;;;;;;28.15;48.66;100814.86;1412113;100;21118;-88
2021/06/05 09:48:41;;;;;;;6.12;1.60;;;;;;;28.12;47.08;100813.39;1432443;100;21102;-89
2021/06/05 09:51:33;;;;;;;4.22;1.40;;;;;;;28.18;47.70;100816.05;1434705;99;21196;-88
2021/06/05 09:54:11;;;;;;;7.65;1.62;;;;;;;27.73;46.95;100816.35;1376999;101;21629;-89
2021/06/05 09:56:47;;;;;;;4.65;1.60;;;;;;;27.56;48.23;100805.19;1483335;95;21083;-87
2021/06/05 09:59:19;;;;;;;5.70;1.50;;;;;;;27.88;47.55;100820.97;1511744;93;21109;-89
2021/06/05 10:05:27;;;;;;;4.72;1.45;;;;;;;27.26;44.55;100821.69;1464094;94;21166;-87
2021/06/05 10:08:00;;;;;;;5.55;1.30;;;;;;;27.83;47.10;100815.77;1440948;99;21182;-90
2021/06/05 10:10:38;;;;;;;7.95;1.50;;;;;;;27.69;44.49;100807.98;1440867;98;21232;-89
2021/06/05 10:13:15;;;;;;;6.42;1.40;;;;;;;28.37;45.89;100813.75;1410038;101;21127;-87
2021/06/05 10:15:47;;;;;;;3.17;1.20;;;;;;;28.20;44.96;100806.20;1397181;101;21658;-86
2021/06/05 10:18:24;;;;;;;5.22;1.62;;;;;;;28.17;44.09;100809.72;1396592;101;21185;-88
2021/06/05 10:21:13;;;;;;;3.02;1.80;;;;;;;28.27;45.88;100804.13;1354789;106;21168;-89
2021/06/05 10:23:44;;;;;;;5.53;1.45;;;;;;;27.95;44.83;100805.06;1354861;104;21988;-90
2021/06/05 10:26:37;;;;;;;7.37;1.47;;;;;;;28.12;42.75;100797.59;1342897;106;21144;-88
2021/06/05 10:29:31;;;;;;;9.05;1.70;;;;;;;28.33;43.25;100792.92;1342866;106;21215;-92
2021/06/05 10:32:02;;;;;;;5.85;1.80;;;;;;;28.28;43.62;100783.55;1342955;106;21130;-89
2021/06/05 10:34:45;;;;;;;22.42;1.87;;;;;;;28.80;46.12;100790.75;1343108;104;23078;-88
2021/06/05 10:37:19;;;;;;;6.15;1.40;;;;;;;28.58;46.88;100786.32;1352898;104;21643;-89
2021/06/05 10:39:47;;;;;;;5.67;1.32;;;;;;;28.62;42.74;100791.90;1370697;102;21124;-89
2021/06/05 10:42:26;;;;;;;6.67;1.45;;;;;;;28.22;46.45;100788.61;1370870;104;21232;-88
2021/06/05 10:44:54;;;;;;;6.28;1.37;;;;;;;28.27;42.34;100795.22;1368583;103;21118;-89
2021/06/05 10:47:32;;;;;;;5.42;1.42;;;;;;;27.98;42.04;100792.64;1368767;104;21208;-87
2021/06/05 10:50:24;;;;;;;2.58;1.60;;;;;;;27.75;41.62;100791.86;1369774;104;21024;-88
2021/06/05 10:53:20;;;;;;;4.55;1.50;;;;;;;27.82;44.22;100786.45;1375505;104;21140;-87
2021/06/05 10:55:59;;;;;;;4.22;1.50;;;;;;;27.63;41.64;100783.97;1374057;104;21686;-87
2021/06/05 10:58:36;;;;;;;4.40;1.65;;;;;;;27.82;44.21;100785.86;1391239;102;21093;-90
2021/06/05 11:01:07;;;;;;;7.35;1.72;;;;;;;27.56;44.59;100788.58;1401081;102;22043;-88
2021/06/05 11:03:44;;;;;;;6.62;1.87;;;;;;;27.24;42.91;100791.62;1402424;102;21608;-87
2021/06/05 11:06:18;;;;;;;6.87;1.70;;;;;;;27.48;45.84;100784.91;1402528;102;21624;-89
2021/06/05 11:08:57;;;;;;;7.85;1.60;;;;;;;27.33;45.01;100784.46;1399028;102;21128;-88
2021/06/05 11:11:45;;;;;;;5.58;1.82;;;;;;;27.74;45.42;100776.42;1446382;98;21178;-90
2021/06/05 11:14:25;;;;;;;6.30;1.80;;;;;;;27.66;44.47;100782.42;1446329;98;21864;-89
2021/06/05 11:17:05;;;;;;;6.62;1.50;;;;;;;27.49;43.58;100777.40;1446347;99;21069;-88
2021/06/05 11:19:53;;;;;;;3.75;1.55;;;;;;;27.31;45.92;100773.75;1446125;99;21046;-90
2021/06/05 11:22:26;;;;;;;3.87;1.60;;;;;;;26.95;44.77;100781.97;1459358;93;21146;-88
2021/06/05 11:25:12;;;;;;;7.45;1.40;;;;;;;26.80;46.51;100785.05;1512694;94;21145;-88
2021/06/05 11:27:47;;;;;;;10.30;1.80;;;;;;;26.80;46.51;100785.05;1512846;94;21155;-88
2021/06/05 11:30:27;;;;;;;4.58;1.50;;;;;;;26.59;47.18;100790.97;1555992;90;21130;-88
2021/06/05 11:33:09;;;;;;;8.78;1.75;;;;;;;26.76;48.60;100789.70;1578867;90;21050;-88
2021/06/05 11:35:54;;;;;;;6.23;1.60;;;;;;;26.70;47.20;100789.77;1579029;90;21094;-87
2021/06/05 11:38:25;;;;;;;3.85;1.40;;;;;;;26.45;45.76;100785.11;1578701;90;20995;-88
2021/06/05 11:41:08;;;;;;;7.60;1.85;;;;;;;26.64;48.41;100795.38;1612199;84;21238;-87
2021/06/05 11:43:39;;;;;;;10.98;2.35;;;;;;;26.72;48.32;100796.55;1666309;86;21515;-88
2021/06/05 11:46:22;;;;;;;3.85;1.85;;;;;;;26.77;48.21;100791.31;1665987;86;21133;-88